Morris, IL (60450)

7:03 PM CDT on September 20, 2014 (GMT -0500)
Morris North | Change Station
CLOSE
Current Station
Personal Weather Station
Location: Morris, IL
Elevation: 548 ft
Nearby Weather Stations

Elev 548 ft 41.38 °N, 88.43 °W | Updated 5 seconds ago

Partly Cloudy
Partly Cloudy
71.4 °F
Feels Like 71.4 °F
N
0.7
Wind Variable Wind from SE
Gusts 2.2 mph

Today
High -- | Low -- °F
--% Chance of Precip.
Yesterday
High -- | Low -- °F
Precip. -- in
6:39 AM 6:54 PM
Waning Crescent, 10% visible
Pressure 29.81 in
Visibility 10.0 miles
Clouds Scattered Clouds 9000 ft
Scattered Clouds 11000 ft
Dew Point 69 °F
Humidity 92%
Rainfall 0.32 in
Snow Depth Not available.
UV 0 out of 12
Pollen 5.00 out of 12
Ozone Good
PM2.5 Moderate
Flu Activity Not available.
METAR KC09 202355Z AUTO 21003KT 10SM SCT090 SCT110 21/20 A2981 RMK AO2 T02140204 10273 20214

More Conditions Fewer Conditions

Pressure 29.81 in
Visibility 10.0 miles
Clouds Scattered Clouds 9000 ft
Scattered Clouds 11000 ft
Dew Point 69 °F
Humidity 92%
Rainfall 0.32 in
Snow Depth Not available.
UV 0 out of 12
Pollen 5.00 out of 12
Ozone Good
PM2.5 Moderate
Flu Activity Not available.
METAR KC09 202355Z AUTO 21003KT 10SM SCT090 SCT110 21/20 A2981 RMK AO2 T02140204 10273 20214

More Conditions Fewer Conditions

10-Day Weather Forecast

Almanac

Astronomy

Sep. 20, 2014 Rise Set
Actual Time 6:39 AM CDT 6:54 PM CDT
Civil Twilight 6:11 AM CDT 7:21 PM CDT
Nautical Twilight 5:39 AM CDT 7:54 PM CDT
Astronomical Twilight 5:05 AM CDT 8:27 PM CDT
Moon 3:16 AM CDT (9/20) 4:59 PM CDT (9/20)
Length of Visible Light 13h 10m
Length of Day
12h 15m
Tomorrow will be 2m 43s shorter.
Waning Crescent, 10% of the Moon is Illuminated
Today
Waning Crescent
Sep 24
New
Oct 1
First Quarter
Oct 8
Full
Oct 15
Last Quarter

Today's Extremes

State Highs State Lows

Community

WunderPhotos

Upload Photos

1,754,982 photos uploaded!

WunderBlogs® & News

Nearby

Air Quality

  Air Quality AQ Index Pollutant
Yesterday Moderate
PM2.5
Yesterday Good
OZONE
Current Moderate
PM2.5
Current Good
OZONE
Saturday Moderate
PM2.5
Sunday Good
PM2.5
Monday Good
PM2.5
Tuesday Moderate
PM2.5

Snow Depth

Station Depth Elevation
No new snow has been reported.

Earthquake Activity

City Distance Mag. Time & Date
No recent earthquake activity has been reported nearby.
Minimum magnitude displayed is 2.5.

Coastal Water Temperatures

Place Temperature
No Stations Reporting

Nearby Weather Stations